Time;durP1;ratioP1;P1;durP2;ratioP2;P2;SDS_P1;SDS_P2;PMS_P1;PMS_P2;Temp;Humidity;BMP_temperature;BMP_pressure;BME280_temperature;BME280_humidity;BME280_pressure;Samples;Min_cycle;Max_cycle;Signal;HPM_P1;HPM_P2
2023/04/09 00:01:06;;;;;;;29.87;22.40;;;8.40;99.90;;;;;;5010218;28;20197;-79
2023/04/09 00:03:32;;;;;;;29.83;22.30;;;8.40;99.90;;;;;;5026352;28;20187;-79
2023/04/09 00:05:57;;;;;;;32.03;22.73;;;8.40;99.90;;;;;;5010257;28;20512;-80
2023/04/09 00:08:23;;;;;;;29.33;22.37;;;8.40;99.90;;;;;;5011149;28;20497;-79
2023/04/09 00:10:50;;;;;;;29.50;22.30;;;8.50;99.90;;;;;;5026828;28;20199;-79
2023/04/09 00:13:16;;;;;;;27.20;20.80;;;8.30;99.90;;;;;;5026422;28;20203;-80
2023/04/09 00:15:42;;;;;;;31.57;22.13;;;8.40;99.90;;;;;;5011786;28;20513;-79
2023/04/09 00:18:08;;;;;;;29.10;21.47;;;8.40;99.90;;;;;;5026269;28;20421;-80
2023/04/09 00:20:34;;;;;;;32.07;23.50;;;8.40;99.90;;;;;;5026206;28;20438;-80
2023/04/09 00:23:00;;;;;;;31.23;23.10;;;8.30;99.90;;;;;;5026582;28;20183;-79
2023/04/09 00:25:27;;;;;;;29.30;22.90;;;8.30;99.90;;;;;;5010054;28;20178;-79
2023/04/09 00:27:53;;;;;;;31.03;22.80;;;8.30;99.90;;;;;;5009861;28;20501;-78
2023/04/09 00:30:19;;;;;;;30.73;22.30;;;8.20;99.90;;;;;;4991330;28;20506;-78
2023/04/09 00:32:45;;;;;;;30.37;21.50;;;8.40;99.90;;;;;;5006380;28;20624;-78
2023/04/09 00:35:11;;;;;;;33.67;23.80;;;8.10;99.90;;;;;;4990884;28;20479;-80
2023/04/09 00:37:37;;;;;;;33.20;22.60;;;8.10;99.90;;;;;;5006345;28;20407;-80
2023/04/09 00:40:03;;;;;;;30.70;22.50;;;8.00;99.90;;;;;;4990186;28;20512;-80
2023/04/09 00:42:33;;;;;;;30.37;21.60;;;8.10;99.90;;;;;;4991528;28;20168;-79
2023/04/09 00:44:59;;;;;;;28.27;20.50;;;8.10;99.90;;;;;;5001652;28;20468;-80
2023/04/09 00:47:27;;;;;;;28.87;20.40;;;8.00;99.90;;;;;;5010744;28;20425;-79
2023/04/09 00:49:53;;;;;;;28.97;21.20;;;8.00;99.90;;;;;;5010838;28;20430;-79
2023/04/09 00:52:22;;;;;;;30.10;21.53;;;8.00;99.90;;;;;;5026336;28;20426;-78
2023/04/09 00:54:49;;;;;;;27.10;20.10;;;8.00;99.90;;;;;;5010897;28;20417;-80
2023/04/09 00:57:16;;;;;;;27.57;20.33;;;8.00;99.90;;;;;;5026060;28;20524;-79
2023/04/09 00:59:42;;;;;;;32.50;21.70;;;8.00;99.90;;;;;;5011141;28;20429;-80
2023/04/09 01:02:08;;;;;;;33.77;21.63;;;8.00;99.90;;;;;;5010657;28;20406;-80
2023/04/09 01:04:34;;;;;;;29.33;22.30;;;7.90;99.90;;;;;;5026127;28;20501;-79
2023/04/09 01:07:10;;;;;;;29.67;22.37;;;8.00;99.90;;;;;;5010929;28;20298;-80
2023/04/09 01:09:42;;;;;;;30.77;21.00;;;8.00;99.90;;;;;;5015213;28;20442;-78
2023/04/09 01:12:20;;;;;;;30.70;22.67;;;7.90;99.90;;;;;;5016599;28;20410;-78
2023/04/09 01:15:03;;;;;;;31.90;23.27;;;8.00;99.90;;;;;;5032230;28;20418;-78
2023/04/09 01:17:45;;;;;;;31.63;22.03;;;7.70;99.90;;;;;;5015693;28;20417;-78
2023/04/09 01:20:21;;;;;;;29.90;22.00;;;8.00;99.90;;;;;;5015401;28;20488;-78
2023/04/09 01:23:24;;;;;;;31.43;22.20;;;8.00;99.90;;;;;;5017120;28;20406;-78
2023/04/09 01:26:15;;;;;;;30.77;21.60;;;7.90;99.90;;;;;;5018105;28;20853;-78
2023/04/09 01:28:47;;;;;;;32.50;23.73;;;7.90;99.90;;;;;;4989201;28;21210;-78
2023/04/09 01:31:17;;;;;;;33.67;23.90;;;7.70;99.90;;;;;;5009501;28;20483;-78
2023/04/09 01:33:43;;;;;;;32.63;23.10;;;7.70;99.90;;;;;;5009554;28;21200;-78
2023/04/09 01:36:10;;;;;;;30.63;22.47;;;7.70;99.90;;;;;;5012394;28;20437;-78
2023/04/09 01:38:38;;;;;;;31.77;23.30;;;7.70;99.90;;;;;;5014868;28;20433;-77
2023/04/09 01:41:05;;;;;;;32.20;23.93;;;7.70;99.90;;;;;;5011923;28;20528;-77
2023/04/09 01:43:32;;;;;;;36.70;24.93;;;7.60;99.90;;;;;;4995451;28;20501;-78
2023/04/09 01:46:00;;;;;;;34.93;23.87;;;7.80;99.90;;;;;;5013040;28;20474;-77
2023/04/09 01:48:27;;;;;;;33.90;22.97;;;7.50;99.90;;;;;;4998097;28;20430;-78
2023/04/09 01:50:53;;;;;;;30.60;23.33;;;7.80;99.90;;;;;;4997565;28;20434;-78
2023/04/09 01:53:20;;;;;;;35.97;25.17;;;7.50;99.90;;;;;;4997687;28;20466;-78
2023/04/09 01:55:46;;;;;;;32.83;23.50;;;7.80;99.90;;;;;;4999896;28;20421;-78
2023/04/09 01:58:12;;;;;;;34.43;23.43;;;7.70;99.90;;;;;;5013835;28;20419;-78
2023/04/09 02:00:44;;;;;;;35.53;23.90;;;7.70;99.90;;;;;;4997242;28;20207;-78
2023/04/09 02:03:21;;;;;;;36.70;24.67;;;7.50;99.90;;;;;;4997428;28;20522;-78
2023/04/09 02:05:59;;;;;;;36.07;23.47;;;7.50;99.90;;;;;;4999801;28;20427;-77
2023/04/09 02:08:26;;;;;;;32.60;23.97;;;7.60;99.90;;;;;;4999514;28;20415;-78
2023/04/09 02:10:56;;;;;;;31.43;24.67;;;7.50;99.90;;;;;;5000215;28;20450;-78
2023/04/09 02:13:23;;;;;;;32.47;23.70;;;7.50;99.90;;;;;;5007558;28;20544;-78
2023/04/09 02:15:50;;;;;;;32.37;23.73;;;7.40;99.90;;;;;;5006287;28;20411;-77
2023/04/09 02:18:29;;;;;;;30.70;21.70;;;7.40;99.90;;;;;;5009381;28;20406;-78
2023/04/09 02:20:57;;;;;;;29.37;22.63;;;7.30;99.90;;;;;;4998640;28;20431;-76
2023/04/09 02:23:23;;;;;;;30.30;21.37;;;7.30;99.90;;;;;;4998105;28;20419;-77
2023/04/09 02:25:50;;;;;;;30.07;22.83;;;7.30;99.90;;;;;;5000891;28;20415;-76
2023/04/09 02:28:16;;;;;;;30.50;23.43;;;7.10;99.90;;;;;;5018762;28;20484;-77
2023/04/09 02:30:42;;;;;;;29.17;22.30;;;7.00;99.90;;;;;;5017383;28;20438;-78
2023/04/09 02:33:08;;;;;;;32.20;23.27;;;6.90;99.90;;;;;;5017939;28;20229;-78
2023/04/09 02:35:33;;;;;;;29.70;22.17;;;7.10;99.90;;;;;;5019982;28;20262;-78
2023/04/09 02:37:59;;;;;;;32.90;23.17;;;7.00;99.90;;;;;;5019513;28;20175;-78
2023/04/09 02:40:25;;;;;;;33.40;24.10;;;6.90;99.90;;;;;;5017691;28;20219;-78
2023/04/09 02:42:52;;;;;;;35.17;24.27;;;7.00;99.90;;;;;;5009512;28;20963;-78
2023/04/09 02:45:18;;;;;;;35.80;24.30;;;6.80;99.90;;;;;;5013590;28;20179;-77
2023/04/09 02:47:43;;;;;;;30.80;23.90;;;6.80;99.90;;;;;;5017198;28;20438;-78
2023/04/09 02:50:09;;;;;;;36.20;24.10;;;6.70;99.90;;;;;;5032789;28;20199;-77
2023/04/09 02:52:35;;;;;;;34.50;23.40;;;6.80;99.90;;;;;;5032515;28;20183;-77
2023/04/09 02:55:01;;;;;;;44.07;23.23;;;6.90;99.90;;;;;;5032328;28;20183;-77
2023/04/09 02:57:26;;;;;;;43.47;24.33;;;6.70;99.90;;;;;;5015140;28;20179;-78
2023/04/09 02:59:52;;;;;;;58.37;25.70;;;6.40;99.90;;;;;;5016076;28;21004;-78
2023/04/09 03:02:18;;;;;;;38.93;23.93;;;6.50;99.90;;;;;;5032959;28;20179;-78
2023/04/09 03:04:44;;;;;;;43.03;23.20;;;6.50;99.90;;;;;;5032035;28;20241;-77
2023/04/09 03:07:10;;;;;;;57.53;22.73;;;6.60;99.90;;;;;;5031231;28;20194;-78
2023/04/09 03:09:36;;;;;;;41.10;22.37;;;6.30;99.90;;;;;;5009737;28;20438;-78
2023/04/09 03:12:01;;;;;;;36.63;23.00;;;6.30;99.90;;;;;;5018269;28;20219;-78
2023/04/09 03:14:27;;;;;;;38.60;23.13;;;6.40;99.90;;;;;;5019343;28;20211;-78
2023/04/09 03:16:53;;;;;;;41.57;23.10;;;6.40;99.90;;;;;;5017214;28;20604;-76
2023/04/09 03:19:18;;;;;;;34.17;21.20;;;6.20;99.90;;;;;;5016389;28;20753;-77
2023/04/09 03:21:45;;;;;;;31.80;21.87;;;6.10;99.90;;;;;;5017632;28;20270;-78
2023/04/09 03:24:11;;;;;;;36.70;22.57;;;6.10;99.90;;;;;;5018283;28;20243;-77
2023/04/09 03:26:37;;;;;;;30.20;19.83;;;6.10;99.90;;;;;;5018521;28;20847;-78
2023/04/09 03:29:06;;;;;;;30.30;21.40;;;6.20;99.90;;;;;;5010286;28;20458;-77
2023/04/09 03:31:32;;;;;;;36.00;22.17;;;6.00;99.90;;;;;;5012176;28;20445;-77
2023/04/09 03:33:57;;;;;;;32.20;22.33;;;5.90;99.90;;;;;;5019894;28;20465;-78
2023/04/09 03:36:23;;;;;;;41.07;22.27;;;5.80;99.90;;;;;;5025375;28;20422;-78
2023/04/09 03:38:49;;;;;;;31.17;20.70;;;6.00;99.90;;;;;;5011976;28;20199;-79
2023/04/09 03:41:15;;;;;;;37.83;20.80;;;5.80;99.90;;;;;;5013661;28;20734;-80
2023/04/09 03:43:41;;;;;;;40.30;21.43;;;5.70;99.90;;;;;;5010308;28;20414;-79
2023/04/09 03:46:17;;;;;;;41.87;20.40;;;5.60;99.90;;;;;;4990928;28;20640;-80
2023/04/09 03:48:43;;;;;;;38.00;21.80;;;5.70;99.90;;;;;;4974291;28;20187;-80
2023/04/09 03:51:13;;;;;;;32.20;20.30;;;5.50;99.90;;;;;;4990476;28;20462;-79
2023/04/09 03:53:39;;;;;;;37.43;19.67;;;5.50;99.90;;;;;;4991959;28;20459;-79
2023/04/09 03:56:05;;;;;;;31.30;20.40;;;5.50;99.90;;;;;;4974488;28;20506;-77
2023/04/09 03:58:31;;;;;;;55.47;22.57;;;5.50;99.90;;;;;;5000830;28;20948;-76
2023/04/09 04:00:57;;;;;;;26.23;19.50;;;5.20;99.90;;;;;;4993709;28;20439;-77
2023/04/09 04:03:22;;;;;;;27.40;18.87;;;5.40;99.90;;;;;;4998018;28;20195;-77
2023/04/09 04:05:48;;;;;;;23.90;19.13;;;5.20;99.90;;;;;;4989047;28;20194;-77
2023/04/09 04:08:14;;;;;;;29.70;20.10;;;5.20;99.90;;;;;;4997911;28;20191;-78
2023/04/09 04:10:39;;;;;;;26.53;19.47;;;5.30;99.90;;;;;;5001067;28;20205;-77
2023/04/09 04:13:07;;;;;;;23.00;18.17;;;5.40;99.90;;;;;;4993033;28;20305;-77
2023/04/09 04:15:38;;;;;;;31.73;18.43;;;5.00;99.90;;;;;;5012102;28;20186;-78
2023/04/09 04:18:03;;;;;;;27.60;20.00;;;5.40;99.90;;;;;;5014810;28;20425;-78
2023/04/09 04:20:32;;;;;;;24.07;18.23;;;5.30;99.90;;;;;;5013175;28;20430;-77
2023/04/09 04:22:58;;;;;;;21.90;18.47;;;5.40;99.90;;;;;;5009240;28;20343;-79
2023/04/09 04:25:23;;;;;;;26.87;19.60;;;5.10;99.90;;;;;;5009108;28;21050;-79
2023/04/09 04:27:49;;;;;;;20.80;17.90;;;5.30;99.90;;;;;;5009026;28;20422;-77
2023/04/09 04:30:15;;;;;;;22.53;18.23;;;5.10;99.90;;;;;;5010169;28;20203;-78
2023/04/09 04:32:40;;;;;;;24.23;17.40;;;5.00;99.90;;;;;;5010364;28;20282;-81
2023/04/09 04:35:06;;;;;;;19.60;15.53;;;5.10;99.90;;;;;;5009998;28;20171;-78
2023/04/09 04:37:32;;;;;;;19.57;17.10;;;5.00;99.90;;;;;;5009997;28;20262;-78
2023/04/09 04:40:00;;;;;;;25.87;17.93;;;5.00;99.90;;;;;;5003909;28;20630;-78
2023/04/09 04:42:26;;;;;;;22.60;16.47;;;4.90;99.90;;;;;;5004952;28;20187;-77
2023/04/09 04:44:51;;;;;;;26.07;18.67;;;5.00;99.90;;;;;;4997024;28;20510;-77
2023/04/09 04:47:18;;;;;;;22.27;17.80;;;5.00;99.90;;;;;;4989078;28;20182;-78
2023/04/09 04:49:44;;;;;;;17.93;16.00;;;5.10;99.90;;;;;;4990324;28;20195;-77
2023/04/09 04:52:10;;;;;;;23.27;17.60;;;4.90;99.90;;;;;;4989463;28;20426;-77
2023/04/09 04:54:35;;;;;;;18.60;16.60;;;4.80;99.90;;;;;;4989005;28;20466;-79
2023/04/09 04:57:01;;;;;;;20.90;18.20;;;5.00;99.90;;;;;;4990352;28;20430;-78
2023/04/09 04:59:27;;;;;;;22.77;18.00;;;5.00;99.90;;;;;;4973074;28;20574;-77
2023/04/09 05:01:53;;;;;;;21.20;17.47;;;5.00;99.90;;;;;;4989499;28;20913;-78
2023/04/09 05:04:19;;;;;;;19.43;16.53;;;4.90;99.90;;;;;;4990466;28;20411;-80
2023/04/09 05:06:45;;;;;;;22.90;17.43;;;4.90;99.90;;;;;;4997493;28;20182;-77
2023/04/09 05:09:10;;;;;;;21.43;17.97;;;4.90;99.90;;;;;;4994198;28;20187;-78
2023/04/09 05:11:36;;;;;;;21.50;17.63;;;4.90;99.90;;;;;;4998271;28;20677;-78
2023/04/09 05:14:03;;;;;;;21.87;17.00;;;5.00;99.90;;;;;;4995458;28;20278;-77
2023/04/09 05:16:29;;;;;;;21.57;16.50;;;4.80;99.90;;;;;;4994535;28;20509;-77
2023/04/09 05:18:55;;;;;;;20.47;16.30;;;4.70;99.90;;;;;;5005157;28;21008;-76
2023/04/09 05:21:20;;;;;;;22.00;18.23;;;4.80;99.90;;;;;;5002413;28;20455;-77
2023/04/09 05:23:46;;;;;;;21.50;18.40;;;4.80;99.90;;;;;;5013760;28;20560;-76
2023/04/09 05:26:12;;;;;;;22.13;17.10;;;5.10;99.90;;;;;;5014167;28;20298;-77
2023/04/09 05:28:38;;;;;;;20.00;16.10;;;5.00;99.90;;;;;;4997657;28;20198;-77
2023/04/09 05:31:10;;;;;;;22.73;17.27;;;5.10;99.90;;;;;;5025733;28;20437;-76
2023/04/09 05:33:37;;;;;;;26.90;17.87;;;5.00;99.90;;;;;;5005189;28;20451;-76
2023/04/09 05:36:03;;;;;;;24.73;17.83;;;4.90;99.90;;;;;;5005568;28;20437;-76
2023/04/09 05:38:28;;;;;;;19.47;17.10;;;5.20;99.90;;;;;;4996778;28;20438;-77
2023/04/09 05:40:54;;;;;;;22.83;17.40;;;5.00;99.90;;;;;;5000306;28;20427;-77
2023/04/09 05:43:20;;;;;;;19.30;16.47;;;5.10;99.90;;;;;;4993853;28;20176;-76
2023/04/09 05:45:46;;;;;;;19.80;17.23;;;5.00;99.90;;;;;;5001052;28;20195;-76
2023/04/09 05:48:12;;;;;;;19.20;16.40;;;5.30;99.90;;;;;;5007335;28;20429;-77
2023/04/09 05:50:37;;;;;;;20.83;16.77;;;5.10;99.90;;;;;;5012126;28;20195;-77
2023/04/09 05:53:03;;;;;;;20.20;16.27;;;5.20;99.90;;;;;;5013238;28;20217;-77
2023/04/09 05:55:31;;;;;;;18.97;16.80;;;5.30;99.90;;;;;;5013612;28;20197;-78
2023/04/09 05:57:57;;;;;;;21.20;17.53;;;5.40;99.90;;;;;;5011945;28;20721;-77
2023/04/09 06:00:23;;;;;;;21.37;16.93;;;5.70;99.90;;;;;;5011837;28;20437;-77
2023/04/09 06:02:49;;;;;;;21.20;17.03;;;5.80;99.90;;;;;;4995820;28;20421;-77
2023/04/09 06:05:14;;;;;;;21.43;16.33;;;6.00;99.90;;;;;;5012336;28;20516;-77
2023/04/09 06:07:40;;;;;;;23.27;17.67;;;5.80;99.90;;;;;;4996572;28;20572;-77
2023/04/09 06:10:07;;;;;;;21.60;18.03;;;6.10;99.90;;;;;;5013810;28;20232;-78
2023/04/09 06:12:36;;;;;;;24.47;18.93;;;6.20;99.90;;;;;;4998621;28;20184;-77
2023/04/09 06:15:02;;;;;;;25.83;19.40;;;6.30;99.90;;;;;;5001865;28;20794;-78
2023/04/09 06:17:28;;;;;;;20.70;15.90;;;6.60;99.90;;;;;;4990354;28;20532;-78
2023/04/09 06:19:54;;;;;;;21.63;17.10;;;6.60;99.90;;;;;;5013445;28;20461;-78
2023/04/09 06:22:20;;;;;;;23.93;19.00;;;6.70;99.90;;;;;;5010429;28;20203;-77
2023/04/09 06:24:45;;;;;;;22.27;17.70;;;6.70;99.90;;;;;;5013927;28;20221;-77
2023/04/09 06:27:11;;;;;;;21.30;17.60;;;6.90;99.90;;;;;;5015660;28;20222;-77
2023/04/09 06:29:37;;;;;;;20.43;16.30;;;7.10;99.90;;;;;;5013203;28;20199;-78
2023/04/09 06:32:03;;;;;;;19.30;14.63;;;7.20;99.90;;;;;;5013442;28;20270;-77
2023/04/09 06:34:29;;;;;;;20.37;15.47;;;7.30;99.90;;;;;;4993987;28;20210;-77
2023/04/09 06:36:54;;;;;;;19.93;15.50;;;7.50;99.90;;;;;;5024348;28;20462;-78
2023/04/09 06:39:20;;;;;;;18.13;15.53;;;7.20;99.90;;;;;;5019182;28;20456;-77
2023/04/09 06:41:46;;;;;;;18.27;13.60;;;7.50;99.90;;;;;;5014242;28;20214;-77
2023/04/09 06:44:12;;;;;;;18.83;14.77;;;7.70;99.90;;;;;;5019934;28;20253;-77
2023/04/09 06:46:38;;;;;;;17.70;14.20;;;7.80;99.90;;;;;;5004644;28;20226;-77
2023/04/09 06:49:04;;;;;;;19.37;14.90;;;8.10;99.90;;;;;;5015819;28;20517;-78
2023/04/09 06:51:30;;;;;;;20.13;15.00;;;8.00;99.90;;;;;;5008975;28;20246;-77
2023/04/09 06:53:56;;;;;;;17.87;14.30;;;7.90;99.90;;;;;;5013184;28;20500;-77
2023/04/09 06:56:22;;;;;;;21.00;15.97;;;8.20;99.90;;;;;;5007565;28;20450;-77
2023/04/09 06:58:47;;;;;;;19.73;14.70;;;8.30;99.90;;;;;;5026088;28;20735;-77
2023/04/09 07:01:13;;;;;;;19.60;15.90;;;8.30;99.90;;;;;;5014464;28;20297;-77
2023/04/09 07:03:39;;;;;;;22.07;16.90;;;8.40;99.90;;;;;;5020984;28;20301;-77
2023/04/09 07:06:05;;;;;;;19.63;15.00;;;8.50;99.90;;;;;;5016396;28;20350;-77
2023/04/09 07:08:31;;;;;;;21.23;15.20;;;8.40;99.90;;;;;;5033195;28;21213;-78
2023/04/09 07:10:56;;;;;;;20.30;15.77;;;8.50;99.90;;;;;;5010630;28;20286;-76
2023/04/09 07:13:22;;;;;;;18.37;14.13;;;8.60;99.90;;;;;;5021668;28;20281;-76
2023/04/09 07:15:48;;;;;;;20.07;15.77;;;8.60;99.90;;;;;;5015476;28;20211;-76
2023/04/09 07:18:13;;;;;;;19.30;15.60;;;8.70;99.90;;;;;;5007989;28;20203;-77
2023/04/09 07:20:39;;;;;;;21.67;15.23;;;8.80;99.90;;;;;;5013272;28;20203;-76
2023/04/09 07:23:05;;;;;;;19.90;15.57;;;8.80;99.90;;;;;;5006323;28;20706;-77
2023/04/09 07:25:31;;;;;;;22.53;15.83;;;8.70;99.90;;;;;;5008071;28;20211;-77
2023/04/09 07:27:57;;;;;;;18.67;15.37;;;8.70;99.90;;;;;;5010010;28;20254;-76
2023/04/09 07:30:22;;;;;;;20.80;16.13;;;8.50;99.90;;;;;;5009396;28;20517;-77
2023/04/09 07:32:48;;;;;;;20.57;15.43;;;8.70;99.90;;;;;;5010939;28;20454;-76
2023/04/09 07:35:14;;;;;;;19.80;15.33;;;9.00;99.90;;;;;;5017936;28;20199;-76
2023/04/09 07:37:40;;;;;;;20.90;15.00;;;8.80;99.90;;;;;;5010027;28;20203;-76
2023/04/09 07:40:07;;;;;;;23.10;16.60;;;8.90;99.90;;;;;;5016528;28;20211;-76
2023/04/09 07:42:32;;;;;;;19.60;14.90;;;9.00;99.90;;;;;;5011716;28;20211;-76
2023/04/09 07:44:58;;;;;;;18.67;14.83;;;9.10;99.90;;;;;;5009978;28;20526;-76
2023/04/09 07:47:24;;;;;;;20.17;15.30;;;9.20;99.90;;;;;;5015058;28;20244;-77
2023/04/09 07:49:50;;;;;;;19.10;14.97;;;9.30;99.90;;;;;;5003563;28;20198;-76
2023/04/09 07:52:15;;;;;;;18.17;15.13;;;9.30;99.90;;;;;;5005241;28;20211;-76
2023/04/09 07:54:41;;;;;;;21.73;15.33;;;9.30;99.90;;;;;;5005867;28;20461;-76
2023/04/09 07:57:07;;;;;;;19.83;14.97;;;9.40;99.90;;;;;;5005131;28;20215;-77
2023/04/09 07:59:36;;;;;;;17.43;13.67;;;9.50;99.90;;;;;;5003677;28;20203;-76
2023/04/09 08:02:02;;;;;;;16.30;13.60;;;9.30;99.90;;;;;;5003961;28;20218;-76
2023/04/09 08:04:28;;;;;;;16.63;13.73;;;9.50;99.90;;;;;;5001115;28;20446;-76
2023/04/09 08:06:54;;;;;;;17.10;13.27;;;9.70;99.90;;;;;;5007638;28;20818;-76
2023/04/09 08:09:20;;;;;;;18.97;14.30;;;9.70;99.90;;;;;;5003487;28;20438;-76
2023/04/09 08:11:47;;;;;;;15.17;12.23;;;9.60;99.90;;;;;;5016465;28;20831;-76
2023/04/09 08:14:16;;;;;;;17.10;13.03;;;9.70;99.90;;;;;;5002125;28;20449;-77
2023/04/09 08:16:44;;;;;;;17.30;13.60;;;9.90;99.90;;;;;;5001821;28;20463;-77
2023/04/09 08:19:10;;;;;;;14.83;12.40;;;9.90;99.90;;;;;;5014843;28;20439;-77
2023/04/09 08:21:43;;;;;;;16.17;13.00;;;9.90;99.90;;;;;;5007377;28;20506;-77
2023/04/09 08:24:13;;;;;;;15.50;12.20;;;10.00;99.90;;;;;;5005632;28;20461;-76
2023/04/09 08:26:39;;;;;;;18.30;13.80;;;10.20;99.90;;;;;;5010634;28;20454;-76
2023/04/09 08:29:05;;;;;;;15.97;11.93;;;10.10;99.90;;;;;;5003021;28;20434;-77
2023/04/09 08:31:31;;;;;;;15.10;12.33;;;10.20;99.90;;;;;;5001085;28;20489;-76
2023/04/09 08:33:57;;;;;;;15.50;12.43;;;10.20;99.90;;;;;;5013870;28;20493;-76
2023/04/09 08:36:22;;;;;;;14.60;11.80;;;10.30;99.90;;;;;;5016232;28;20301;-77
2023/04/09 08:38:48;;;;;;;15.40;11.40;;;10.30;99.90;;;;;;5019823;28;20453;-76
2023/04/09 08:41:23;;;;;;;14.27;11.00;;;10.30;99.90;;;;;;4997847;28;20675;-77
2023/04/09 08:43:50;;;;;;;15.80;11.70;;;10.30;99.90;;;;;;4991975;28;20198;-77
2023/04/09 08:46:17;;;;;;;14.70;11.07;;;10.40;99.90;;;;;;4999006;28;20462;-77
2023/04/09 08:48:45;;;;;;;15.60;11.80;;;10.50;99.90;;;;;;5013906;28;20442;-77
2023/04/09 08:51:15;;;;;;;13.23;10.80;;;10.60;99.90;;;;;;4989855;28;21110;-77
2023/04/09 08:53:46;;;;;;;15.10;11.17;;;10.70;99.90;;;;;;4999137;28;20470;-76
2023/04/09 08:56:14;;;;;;;13.37;10.60;;;10.70;99.90;;;;;;5014637;28;20491;-77
2023/04/09 08:58:44;;;;;;;12.13;10.33;;;10.80;99.90;;;;;;5016434;28;20434;-79
2023/04/09 09:01:20;;;;;;;16.60;10.70;;;10.90;99.90;;;;;;5017857;28;20437;-77
2023/04/09 09:04:06;;;;;;;13.60;10.80;;;11.00;99.90;;;;;;5015862;28;21204;-76
2023/04/09 09:06:37;;;;;;;15.10;11.10;;;11.10;99.90;;;;;;5013897;28;20511;-76
2023/04/09 09:09:12;;;;;;;13.50;10.07;;;11.20;99.90;;;;;;5012072;28;20518;-78
2023/04/09 09:11:46;;;;;;;12.77;10.63;;;11.20;99.90;;;;;;5018574;28;20508;-76
2023/04/09 09:14:17;;;;;;;10.90;9.53;;;11.30;99.90;;;;;;5021256;28;20986;-77
2023/04/09 09:17:03;;;;;;;12.27;8.80;;;11.40;99.90;;;;;;5003855;28;20473;-79
2023/04/09 09:19:32;;;;;;;10.10;7.97;;;11.60;99.90;;;;;;5010704;28;20477;-78
2023/04/09 09:22:00;;;;;;;12.40;8.73;;;11.70;99.90;;;;;;5016549;28;20449;-77
2023/04/09 09:24:26;;;;;;;11.40;8.10;;;11.80;99.90;;;;;;5016845;28;20441;-77
2023/04/09 09:26:57;;;;;;;11.23;7.90;;;11.90;99.90;;;;;;5014853;28;20871;-76
2023/04/09 09:29:23;;;;;;;11.20;8.50;;;12.10;99.90;;;;;;5009692;28;20458;-78
2023/04/09 09:31:50;;;;;;;8.23;7.30;;;12.20;99.90;;;;;;5011224;28;20421;-76
2023/04/09 09:34:17;;;;;;;9.47;7.77;;;12.30;99.90;;;;;;5006647;28;20687;-77
2023/04/09 09:36:44;;;;;;;9.53;7.33;;;12.50;99.90;;;;;;5022217;28;20453;-78
2023/04/09 09:39:11;;;;;;;8.60;7.40;;;12.70;99.90;;;;;;5033161;28;20521;-77
2023/04/09 09:41:41;;;;;;;11.33;7.10;;;12.70;99.90;;;;;;5025495;28;20969;-78
2023/04/09 09:44:10;;;;;;;9.10;7.40;;;12.70;99.90;;;;;;5025263;28;20452;-77
2023/04/09 09:46:41;;;;;;;9.20;7.17;;;12.60;99.60;;;;;;5031251;28;20456;-79
2023/04/09 09:49:08;;;;;;;7.60;6.80;;;12.60;99.70;;;;;;5025799;28;20947;-77
2023/04/09 09:51:38;;;;;;;8.60;7.60;;;12.60;99.50;;;;;;5020665;28;20414;-76
2023/04/09 09:54:07;;;;;;;8.13;6.97;;;12.60;99.90;;;;;;5021114;28;20457;-78
2023/04/09 09:56:38;;;;;;;8.53;7.73;;;12.70;99.90;;;;;;5022690;28;20524;-78
2023/04/09 09:59:20;;;;;;;8.47;6.77;;;12.90;99.90;;;;;;5019417;28;20472;-77
2023/04/09 10:01:49;;;;;;;7.13;6.23;;;13.10;99.90;;;;;;5022291;28;20421;-78
2023/04/09 10:04:17;;;;;;;6.83;6.10;;;13.20;99.90;;;;;;5025476;28;20432;-77
2023/04/09 10:06:44;;;;;;;7.37;6.57;;;13.30;99.40;;;;;;5016642;28;20782;-77
2023/04/09 10:09:11;;;;;;;6.63;6.03;;;13.20;98.70;;;;;;5015537;28;20421;-77
2023/04/09 10:11:41;;;;;;;6.90;5.90;;;13.10;97.90;;;;;;5022380;28;20417;-77
2023/04/09 10:14:07;;;;;;;6.70;6.00;;;13.10;98.80;;;;;;5023894;28;20460;-78
2023/04/09 10:16:34;;;;;;;6.73;6.03;;;13.20;99.00;;;;;;5024850;28;21761;-78
2023/04/09 10:19:00;;;;;;;6.83;6.00;;;13.40;97.60;;;;;;5028678;28;20413;-77
2023/04/09 10:21:26;;;;;;;7.73;6.93;;;13.50;98.10;;;;;;5015029;28;21293;-78
2023/04/09 10:23:52;;;;;;;7.90;6.70;;;13.60;96.70;;;;;;5023432;28;20508;-76
2023/04/09 10:26:18;;;;;;;7.03;6.30;;;13.70;96.80;;;;;;5023551;28;20417;-77
2023/04/09 10:28:44;;;;;;;8.67;6.70;;;13.70;96.80;;;;;;5024509;28;21032;-77
2023/04/09 10:31:10;;;;;;;7.80;7.00;;;13.70;96.00;;;;;;5023273;28;20520;-76
2023/04/09 10:33:37;;;;;;;8.10;6.70;;;13.60;95.90;;;;;;5023600;28;20219;-77
2023/04/09 10:36:11;;;;;;;7.73;6.93;;;13.60;96.20;;;;;;5024106;28;20550;-77
2023/04/09 10:38:37;;;;;;;8.47;6.63;;;13.50;96.20;;;;;;5021586;28;20446;-76
2023/04/09 10:41:30;;;;;;;8.70;7.37;;;13.50;96.70;;;;;;5011226;28;20438;-77
2023/04/09 10:43:56;;;;;;;8.47;7.00;;;13.60;96.80;;;;;;5011359;28;20426;-78
2023/04/09 10:46:37;;;;;;;9.77;6.70;;;13.60;96.40;;;;;;5018109;28;20409;-78
2023/04/09 10:49:17;;;;;;;6.80;6.10;;;13.70;97.00;;;;;;5011941;28;20451;-77
2023/04/09 10:52:02;;;;;;;6.93;6.17;;;13.70;96.10;;;;;;5011312;28;20572;-77
2023/04/09 10:54:34;;;;;;;8.27;6.80;;;13.70;96.80;;;;;;5015101;28;20454;-77
2023/04/09 10:57:09;;;;;;;8.10;6.47;;;13.70;96.90;;;;;;5007062;28;20410;-78
2023/04/09 10:59:54;;;;;;;8.47;7.10;;;13.70;96.90;;;;;;5024576;28;20665;-76
2023/04/09 11:02:38;;;;;;;9.87;6.80;;;13.80;97.00;;;;;;5022492;28;20467;-77
2023/04/09 11:05:28;;;;;;;9.20;7.57;;;13.80;96.50;;;;;;5012729;28;21078;-77
2023/04/09 11:08:13;;;;;;;8.10;6.40;;;13.80;96.40;;;;;;5016390;28;20416;-78
2023/04/09 11:10:41;;;;;;;8.00;6.77;;;13.80;96.90;;;;;;5019840;28;20457;-78
2023/04/09 11:13:12;;;;;;;7.43;6.33;;;13.70;96.20;;;;;;5022516;28;20527;-77
2023/04/09 11:15:38;;;;;;;7.00;6.30;;;13.70;96.20;;;;;;5019596;28;20417;-77
2023/04/09 11:18:05;;;;;;;7.50;6.27;;;13.70;97.00;;;;;;5008098;28;20522;-79
2023/04/09 11:20:33;;;;;;;8.70;7.40;;;13.80;97.90;;;;;;5004383;28;20430;-77
2023/04/09 11:23:02;;;;;;;9.17;7.23;;;13.90;95.80;;;;;;5010571;28;20948;-78
2023/04/09 11:25:30;;;;;;;8.10;6.60;;;14.00;95.20;;;;;;5024765;28;20468;-79
2023/04/09 11:27:56;;;;;;;7.17;6.43;;;14.10;95.70;;;;;;5011837;28;20791;-79
2023/04/09 11:30:22;;;;;;;8.17;6.90;;;13.90;95.00;;;;;;5007206;28;20457;-78
2023/04/09 11:32:48;;;;;;;7.20;6.50;;;13.80;95.60;;;;;;5005473;28;20183;-78
2023/04/09 11:35:17;;;;;;;8.13;7.30;;;13.80;96.70;;;;;;5005818;28;20428;-79
2023/04/09 11:37:44;;;;;;;7.57;6.77;;;13.70;95.80;;;;;;5005369;28;20410;-79
2023/04/09 11:40:20;;;;;;;7.27;6.53;;;13.80;97.40;;;;;;5001598;28;21024;-77
2023/04/09 11:42:49;;;;;;;8.00;7.00;;;14.00;96.20;;;;;;5006687;28;20414;-76
2023/04/09 11:45:16;;;;;;;8.93;7.50;;;14.20;95.00;;;;;;5010108;28;20505;-77
2023/04/09 11:47:43;;;;;;;8.40;7.10;;;14.20;94.40;;;;;;5013381;28;20441;-77
2023/04/09 11:50:10;;;;;;;7.93;7.13;;;14.30;94.70;;;;;;5010880;28;20459;-79
2023/04/09 11:52:36;;;;;;;10.70;8.50;;;14.40;95.40;;;;;;5020963;28;20426;-79
2023/04/09 11:55:03;;;;;;;8.37;6.90;;;14.40;95.00;;;;;;5012728;28;21212;-79
2023/04/09 11:57:43;;;;;;;8.03;7.23;;;14.40;95.10;;;;;;5006592;28;20418;-78
2023/04/09 12:00:13;;;;;;;8.47;7.57;;;14.30;94.80;;;;;;5015385;28;20432;-78
2023/04/09 12:02:45;;;;;;;9.60;7.30;;;14.20;95.40;;;;;;5019179;28;20485;-79
2023/04/09 12:05:19;;;;;;;8.00;7.20;;;14.10;95.90;;;;;;5016357;28;20422;-78
2023/04/09 12:07:45;;;;;;;10.23;7.97;;;14.00;95.00;;;;;;5021791;28;20479;-79
2023/04/09 12:10:11;;;;;;;8.80;7.70;;;13.90;95.20;;;;;;5009830;28;20495;-78
2023/04/09 12:12:41;;;;;;;7.73;6.90;;;13.90;95.20;;;;;;5015925;28;20432;-77
2023/04/09 12:15:15;;;;;;;8.50;7.20;;;13.90;95.90;;;;;;5030341;28;20411;-78
2023/04/09 12:17:41;;;;;;;8.93;7.50;;;14.00;95.90;;;;;;5021391;28;20417;-78
2023/04/09 12:20:08;;;;;;;9.23;7.83;;;14.00;95.90;;;;;;5010625;28;20437;-77
2023/04/09 12:22:36;;;;;;;8.80;7.10;;;14.10;95.50;;;;;;5018559;28;20265;-78
2023/04/09 12:25:02;;;;;;;8.63;7.37;;;14.20;96.20;;;;;;5017551;28;20418;-79
2023/04/09 12:27:27;;;;;;;9.70;8.00;;;14.40;95.20;;;;;;5013543;28;20405;-77
2023/04/09 12:29:53;;;;;;;8.40;7.27;;;14.40;94.10;;;;;;5025319;28;20202;-78
2023/04/09 12:32:19;;;;;;;8.30;7.50;;;14.50;94.70;;;;;;5009851;28;20189;-79
2023/04/09 12:34:46;;;;;;;8.47;7.60;;;14.50;93.60;;;;;;5006249;28;20210;-79
2023/04/09 12:37:11;;;;;;;8.97;7.80;;;14.50;94.20;;;;;;5009964;28;20426;-79
2023/04/09 12:39:37;;;;;;;8.07;7.27;;;14.40;93.90;;;;;;5003582;28;21016;-78
2023/04/09 12:42:03;;;;;;;13.10;7.53;;;14.40;94.30;;;;;;5018194;28;20302;-79